Time;durP1;ratioP1;P1;durP2;ratioP2;P2;SDS_P1;SDS_P2;PMS_P1;PMS_P2;Temp;Humidity;BMP_temperature;BMP_pressure;BME280_temperature;BME280_humidity;BME280_pressure;Samples;Min_cycle;Max_cycle;Signal;HPM_P1;HPM_P2
2021/09/20 00:00:03;;;;;;;0.30;0.30;;;;;;;;;;5087481;28;20024;-59
2021/09/20 00:02:30;;;;;;;0.30;0.30;;;;;;;;;;5086954;28;20029;-59
2021/09/20 00:04:56;;;;;;;0.30;0.30;;;;;;;;;;5087236;28;20060;-59
2021/09/20 00:07:22;;;;;;;0.20;0.20;;;;;;;;;;5087386;28;20047;-59
2021/09/20 00:09:48;;;;;;;0.75;0.30;;;;;;;;;;5087332;28;20056;-59
2021/09/20 00:12:15;;;;;;;0.90;0.30;;;;;;;;;;5079240;28;20056;-59
2021/09/20 00:14:41;;;;;;;0.80;0.50;;;;;;;;;;5067645;28;20498;-59
2021/09/20 00:17:07;;;;;;;0.30;0.30;;;;;;;;;;5071800;28;20028;-59
2021/09/20 00:19:33;;;;;;;0.30;0.30;;;;;;;;;;5086701;28;20031;-59
2021/09/20 00:21:59;;;;;;;0.45;0.38;;;;;;;;;;5068465;28;20558;-59
2021/09/20 00:24:25;;;;;;;0.40;0.40;;;;;;;;;;5087281;28;20024;-59
2021/09/20 00:26:51;;;;;;;0.30;0.30;;;;;;;;;;5086822;28;20391;-59
2021/09/20 00:29:17;;;;;;;0.35;0.30;;;;;;;;;;5086215;28;20039;-59
2021/09/20 00:31:43;;;;;;;0.40;0.40;;;;;;;;;;5087532;28;20034;-58
2021/09/20 00:34:09;;;;;;;0.30;0.30;;;;;;;;;;5086432;28;20111;-58
2021/09/20 00:36:35;;;;;;;0.40;0.40;;;;;;;;;;5082126;28;20399;-58
2021/09/20 00:39:01;;;;;;;0.52;0.40;;;;;;;;;;5066452;28;20491;-58
2021/09/20 00:41:27;;;;;;;0.30;0.30;;;;;;;;;;5066978;28;20035;-58
2021/09/20 00:43:53;;;;;;;0.40;0.40;;;;;;;;;;5066727;28;20104;-58
2021/09/20 00:46:19;;;;;;;0.38;0.30;;;;;;;;;;5066562;28;20036;-58
2021/09/20 00:48:45;;;;;;;0.50;0.30;;;;;;;;;;5066148;28;20045;-58
2021/09/20 00:51:12;;;;;;;0.30;0.30;;;;;;;;;;5066790;28;20111;-58
2021/09/20 00:53:39;;;;;;;0.25;0.25;;;;;;;;;;5066558;28;20021;-58
2021/09/20 00:56:05;;;;;;;0.28;0.28;;;;;;;;;;5065600;28;20459;-58
2021/09/20 00:58:31;;;;;;;0.35;0.35;;;;;;;;;;5065555;28;20025;-58
2021/09/20 01:01:00;;;;;;;0.28;0.28;;;;;;;;;;5066038;28;20032;-58
2021/09/20 01:03:26;;;;;;;0.25;0.20;;;;;;;;;;5065900;28;20024;-58
2021/09/20 01:05:52;;;;;;;0.30;0.30;;;;;;;;;;5066348;28;20040;-58
2021/09/20 01:08:19;;;;;;;0.40;0.40;;;;;;;;;;5066557;28;20028;-58
2021/09/20 01:10:45;;;;;;;0.20;0.20;;;;;;;;;;5049375;28;20032;-58
2021/09/20 01:13:11;;;;;;;0.30;0.30;;;;;;;;;;5048777;28;20033;-58
2021/09/20 01:15:37;;;;;;;0.30;0.30;;;;;;;;;;5065385;28;20060;-58
2021/09/20 01:18:03;;;;;;;0.20;0.20;;;;;;;;;;5045709;28;20533;-58
2021/09/20 01:20:29;;;;;;;0.30;0.30;;;;;;;;;;5046350;28;20122;-58
2021/09/20 01:23:03;;;;;;;0.30;0.30;;;;;;;;;;5045870;28;20048;-58
2021/09/20 01:25:29;;;;;;;0.20;0.20;;;;;;;;;;5065335;28;20033;-58
2021/09/20 01:27:55;;;;;;;0.30;0.30;;;;;;;;;;5065838;28;20021;-58
2021/09/20 01:30:22;;;;;;;0.25;0.25;;;;;;;;;;5065945;28;20040;-58
2021/09/20 01:32:48;;;;;;;0.20;0.20;;;;;;;;;;5066164;28;20040;-58
2021/09/20 01:35:17;;;;;;;0.30;0.30;;;;;;;;;;5066504;28;20029;-58
2021/09/20 01:37:43;;;;;;;0.20;0.20;;;;;;;;;;5085173;28;20118;-58
2021/09/20 01:40:09;;;;;;;0.47;0.30;;;;;;;;;;5087522;28;20028;-58
2021/09/20 01:42:35;;;;;;;0.30;0.30;;;;;;;;;;5090167;28;20028;-58
2021/09/20 01:45:01;;;;;;;0.40;0.40;;;;;;;;;;5089593;28;20035;-58
2021/09/20 01:47:27;;;;;;;0.22;0.22;;;;;;;;;;5087936;28;20062;-58
2021/09/20 01:49:53;;;;;;;0.20;0.20;;;;;;;;;;5089747;28;20046;-58
2021/09/20 01:52:19;;;;;;;0.20;0.20;;;;;;;;;;5089985;28;20032;-58
2021/09/20 01:54:45;;;;;;;0.85;0.30;;;;;;;;;;5090505;28;20495;-58
2021/09/20 01:57:12;;;;;;;0.25;0.25;;;;;;;;;;5075494;28;20411;-58
2021/09/20 01:59:38;;;;;;;0.22;0.22;;;;;;;;;;5069549;28;20024;-58
2021/09/20 02:02:04;;;;;;;0.30;0.30;;;;;;;;;;5050928;28;20027;-58
2021/09/20 02:04:30;;;;;;;0.52;0.40;;;;;;;;;;5069575;28;20025;-58
2021/09/20 02:06:56;;;;;;;0.30;0.30;;;;;;;;;;5068973;28;20384;-58
2021/09/20 02:09:22;;;;;;;0.30;0.30;;;;;;;;;;5069436;28;20028;-57
2021/09/20 02:11:48;;;;;;;0.20;0.20;;;;;;;;;;5069105;28;20081;-58
2021/09/20 02:14:14;;;;;;;0.20;0.20;;;;;;;;;;5069318;28;20029;-58
2021/09/20 02:16:41;;;;;;;0.30;0.30;;;;;;;;;;5068896;28;20028;-59
2021/09/20 02:19:07;;;;;;;0.77;0.30;;;;;;;;;;5068801;28;20029;-58
2021/09/20 02:21:33;;;;;;;0.30;0.30;;;;;;;;;;5069144;28;20035;-58
2021/09/20 02:23:59;;;;;;;0.30;0.30;;;;;;;;;;5069089;28;20028;-58
2021/09/20 02:26:25;;;;;;;0.40;0.35;;;;;;;;;;5069168;28;20078;-58
2021/09/20 02:28:51;;;;;;;0.30;0.30;;;;;;;;;;5072689;28;20546;-58
2021/09/20 02:31:19;;;;;;;0.30;0.30;;;;;;;;;;5089311;28;20058;-58
2021/09/20 02:33:45;;;;;;;0.30;0.30;;;;;;;;;;5090068;28;20024;-58
2021/09/20 02:36:12;;;;;;;0.40;0.40;;;;;;;;;;5089418;28;20035;-58
2021/09/20 02:38:39;;;;;;;0.30;0.30;;;;;;;;;;5088918;28;20036;-58
2021/09/20 02:41:05;;;;;;;0.30;0.30;;;;;;;;;;5088740;28;20131;-58
2021/09/20 02:43:32;;;;;;;0.20;0.20;;;;;;;;;;5088807;28;20028;-58
2021/09/20 02:45:58;;;;;;;0.40;0.40;;;;;;;;;;5088553;28;20026;-58
2021/09/20 02:48:24;;;;;;;0.40;0.40;;;;;;;;;;5088946;28;20059;-58
2021/09/20 02:50:50;;;;;;;0.30;0.30;;;;;;;;;;5088456;28;20795;-58
2021/09/20 02:53:17;;;;;;;0.20;0.20;;;;;;;;;;5088745;28;20016;-58
2021/09/20 02:55:43;;;;;;;0.30;0.30;;;;;;;;;;5084823;28;20052;-58
2021/09/20 02:58:09;;;;;;;0.85;0.30;;;;;;;;;;5068398;28;20100;-58
2021/09/20 03:00:35;;;;;;;0.30;0.30;;;;;;;;;;5068431;28;20024;-58
2021/09/20 03:03:01;;;;;;;0.30;0.30;;;;;;;;;;5067833;28;20028;-58
2021/09/20 03:05:28;;;;;;;0.20;0.20;;;;;;;;;;5068485;28;20447;-58
2021/09/20 03:07:54;;;;;;;0.30;0.30;;;;;;;;;;5068126;28;20028;-57
2021/09/20 03:10:20;;;;;;;0.30;0.30;;;;;;;;;;5068213;28;20025;-58
2021/09/20 03:12:46;;;;;;;0.30;0.30;;;;;;;;;;5072887;28;20070;-58
2021/09/20 03:15:12;;;;;;;0.40;0.32;;;;;;;;;;5088593;28;20021;-58
2021/09/20 03:17:39;;;;;;;0.30;0.30;;;;;;;;;;5088316;28;20032;-58
2021/09/20 03:20:05;;;;;;;0.20;0.20;;;;;;;;;;5087900;28;20016;-58
2021/09/20 03:22:31;;;;;;;0.30;0.30;;;;;;;;;;5088261;28;20039;-58
2021/09/20 03:24:57;;;;;;;0.70;0.40;;;;;;;;;;5087751;28;20039;-58
2021/09/20 03:27:23;;;;;;;0.40;0.40;;;;;;;;;;5086353;28;20032;-58
2021/09/20 03:29:49;;;;;;;0.17;0.17;;;;;;;;;;5068075;28;20028;-58
2021/09/20 03:32:15;;;;;;;0.30;0.30;;;;;;;;;;5067739;28;20581;-58
2021/09/20 03:34:41;;;;;;;0.28;0.22;;;;;;;;;;5050577;28;20107;-58
2021/09/20 03:37:08;;;;;;;0.30;0.30;;;;;;;;;;5067457;28;20458;-58
2021/09/20 03:39:34;;;;;;;0.30;0.30;;;;;;;;;;5067602;28;20017;-58
2021/09/20 03:42:00;;;;;;;0.30;0.30;;;;;;;;;;5067415;28;20045;-58
2021/09/20 03:44:26;;;;;;;0.30;0.30;;;;;;;;;;5067710;28;20036;-58
2021/09/20 03:46:52;;;;;;;0.20;0.20;;;;;;;;;;5067190;28;20027;-58
2021/09/20 03:49:18;;;;;;;0.20;0.20;;;;;;;;;;5067758;28;20657;-58
2021/09/20 03:51:44;;;;;;;0.60;0.40;;;;;;;;;;5068335;28;20025;-57
2021/09/20 03:54:10;;;;;;;0.20;0.20;;;;;;;;;;5067417;28;20488;-58
2021/09/20 03:56:36;;;;;;;0.30;0.30;;;;;;;;;;5079512;28;20410;-58
2021/09/20 03:59:02;;;;;;;0.30;0.30;;;;;;;;;;5087320;28;20031;-58
2021/09/20 04:01:28;;;;;;;0.20;0.20;;;;;;;;;;5087532;28;20469;-58
2021/09/20 04:03:54;;;;;;;0.20;0.20;;;;;;;;;;5086758;28;20047;-58
2021/09/20 04:06:20;;;;;;;0.20;0.20;;;;;;;;;;5087178;28;20780;-58
2021/09/20 04:08:47;;;;;;;0.30;0.30;;;;;;;;;;5087023;28;20416;-58
2021/09/20 04:11:13;;;;;;;0.30;0.30;;;;;;;;;;5087701;28;20035;-58
2021/09/20 04:13:39;;;;;;;0.35;0.32;;;;;;;;;;5086454;28;20506;-58
2021/09/20 04:16:05;;;;;;;0.40;0.40;;;;;;;;;;5086906;28;20064;-58
2021/09/20 04:18:31;;;;;;;0.30;0.30;;;;;;;;;;5087360;28;20028;-58
2021/09/20 04:20:57;;;;;;;0.22;0.22;;;;;;;;;;5086848;28;20371;-58
2021/09/20 04:23:24;;;;;;;0.73;0.40;;;;;;;;;;5087166;28;20510;-58
2021/09/20 04:25:50;;;;;;;0.38;0.38;;;;;;;;;;5087180;28;20032;-58
2021/09/20 04:28:16;;;;;;;0.40;0.40;;;;;;;;;;5087150;28;20574;-58
2021/09/20 04:30:44;;;;;;;0.30;0.30;;;;;;;;;;5087349;28;20058;-58
2021/09/20 04:33:13;;;;;;;0.30;0.30;;;;;;;;;;5086985;28;20040;-58
2021/09/20 04:35:39;;;;;;;0.50;0.50;;;;;;;;;;5086801;28;20768;-57
2021/09/20 04:38:06;;;;;;;0.30;0.30;;;;;;;;;;5086552;28;20032;-58
2021/09/20 04:40:32;;;;;;;0.32;0.32;;;;;;;;;;5072849;28;20027;-58
2021/09/20 04:42:58;;;;;;;0.32;0.32;;;;;;;;;;5066259;28;20036;-57
2021/09/20 04:45:24;;;;;;;0.40;0.40;;;;;;;;;;5066762;28;20016;-58
2021/09/20 04:47:50;;;;;;;0.40;0.40;;;;;;;;;;5066745;28;20097;-58
2021/09/20 04:50:16;;;;;;;0.40;0.40;;;;;;;;;;5066436;28;20033;-58
2021/09/20 04:52:42;;;;;;;0.38;0.38;;;;;;;;;;5067044;28;20028;-58
2021/09/20 04:55:09;;;;;;;0.40;0.40;;;;;;;;;;5065491;28;20028;-57
2021/09/20 04:57:35;;;;;;;1.00;0.43;;;;;;;;;;5066516;28;20035;-57
2021/09/20 05:00:01;;;;;;;0.40;0.40;;;;;;;;;;5066016;28;20108;-57
2021/09/20 05:02:27;;;;;;;0.30;0.30;;;;;;;;;;5066211;28;20028;-57
2021/09/20 05:04:53;;;;;;;0.50;0.50;;;;;;;;;;5066027;28;20024;-57
2021/09/20 05:07:19;;;;;;;0.47;0.47;;;;;;;;;;5066300;28;20521;-57
2021/09/20 05:09:45;;;;;;;0.38;0.38;;;;;;;;;;5066513;28;20419;-57
2021/09/20 05:12:11;;;;;;;0.40;0.40;;;;;;;;;;5066478;28;20029;-58
2021/09/20 05:14:37;;;;;;;0.32;0.32;;;;;;;;;;5067000;28;20549;-57
2021/09/20 05:17:05;;;;;;;0.45;0.40;;;;;;;;;;5070146;28;20021;-57
2021/09/20 05:19:31;;;;;;;0.30;0.30;;;;;;;;;;5087327;28;20632;-58
2021/09/20 05:21:57;;;;;;;0.40;0.40;;;;;;;;;;5090246;28;20763;-58
2021/09/20 05:24:24;;;;;;;0.35;0.35;;;;;;;;;;5090732;28;20048;-57
2021/09/20 05:26:50;;;;;;;0.50;0.40;;;;;;;;;;5090589;28;20024;-57
2021/09/20 05:29:16;;;;;;;0.30;0.30;;;;;;;;;;5090263;28;20035;-57
2021/09/20 05:31:42;;;;;;;0.73;0.30;;;;;;;;;;5091069;28;20048;-55
2021/09/20 05:34:08;;;;;;;0.30;0.30;;;;;;;;;;5090158;28;20760;-57
2021/09/20 05:36:34;;;;;;;0.30;0.30;;;;;;;;;;5090052;28;20039;-57
2021/09/20 05:39:00;;;;;;;0.20;0.20;;;;;;;;;;5090068;28;20398;-57
2021/09/20 05:41:26;;;;;;;0.50;0.50;;;;;;;;;;5090341;28;20570;-57
2021/09/20 05:43:53;;;;;;;0.40;0.30;;;;;;;;;;5088826;28;20102;-57
2021/09/20 05:46:19;;;;;;;0.30;0.30;;;;;;;;;;5089187;28;20039;-57
2021/09/20 05:48:45;;;;;;;0.50;0.40;;;;;;;;;;5077489;28;20020;-57
2021/09/20 05:51:12;;;;;;;0.38;0.38;;;;;;;;;;5069722;28;20115;-58
2021/09/20 05:53:39;;;;;;;0.40;0.40;;;;;;;;;;5077767;28;20039;-57
2021/09/20 05:56:05;;;;;;;0.40;0.40;;;;;;;;;;5068803;28;20405;-56
2021/09/20 05:58:31;;;;;;;0.40;0.40;;;;;;;;;;5068863;28;20028;-57
2021/09/20 06:00:57;;;;;;;0.40;0.40;;;;;;;;;;5069089;28;20656;-57
2021/09/20 06:03:24;;;;;;;0.30;0.30;;;;;;;;;;5069099;28;20411;-57
2021/09/20 06:05:50;;;;;;;0.20;0.20;;;;;;;;;;5073881;28;20383;-57
2021/09/20 06:08:16;;;;;;;0.30;0.30;;;;;;;;;;5088438;28;20077;-57
2021/09/20 06:10:42;;;;;;;0.40;0.40;;;;;;;;;;5090367;28;20028;-57
2021/09/20 06:13:08;;;;;;;0.40;0.40;;;;;;;;;;5075918;28;20368;-57
2021/09/20 06:15:35;;;;;;;0.82;0.50;;;;;;;;;;5052521;28;20652;-57
2021/09/20 06:18:01;;;;;;;0.80;0.50;;;;;;;;;;5066450;28;20143;-57
2021/09/20 06:20:27;;;;;;;0.82;0.80;;;;;;;;;;5070796;28;20064;-57
2021/09/20 06:22:53;;;;;;;0.60;0.60;;;;;;;;;;5068610;28;20028;-55
2021/09/20 06:25:19;;;;;;;0.98;0.60;;;;;;;;;;5068088;28;20028;-58
2021/09/20 06:27:45;;;;;;;0.82;0.55;;;;;;;;;;5067806;28;20495;-58
2021/09/20 06:30:12;;;;;;;0.52;0.52;;;;;;;;;;5068460;28;20162;-57
2021/09/20 06:32:38;;;;;;;0.40;0.40;;;;;;;;;;5088916;28;20510;-57
2021/09/20 06:35:05;;;;;;;0.47;0.40;;;;;;;;;;5088871;28;20032;-57
2021/09/20 06:37:31;;;;;;;0.40;0.40;;;;;;;;;;5077117;28;20060;-58
2021/09/20 06:39:57;;;;;;;0.30;0.30;;;;;;;;;;5068696;28;20020;-56
2021/09/20 06:42:23;;;;;;;0.40;0.40;;;;;;;;;;5068629;28;20534;-58
2021/09/20 06:44:50;;;;;;;0.38;0.38;;;;;;;;;;5067754;28;20119;-58
2021/09/20 06:47:20;;;;;;;0.30;0.30;;;;;;;;;;5068740;28;20379;-59
2021/09/20 06:49:46;;;;;;;0.50;0.40;;;;;;;;;;5068513;28;20025;-58
2021/09/20 06:52:12;;;;;;;0.50;0.50;;;;;;;;;;5059542;28;20061;-58
2021/09/20 06:54:38;;;;;;;0.73;0.60;;;;;;;;;;5054949;28;20035;-58
2021/09/20 06:57:04;;;;;;;0.63;0.63;;;;;;;;;;5067520;28;20024;-58
2021/09/20 06:59:31;;;;;;;0.55;0.45;;;;;;;;;;5066602;28;20029;-57
2021/09/20 07:01:58;;;;;;;0.40;0.40;;;;;;;;;;5066474;28;20013;-58
2021/09/20 07:04:24;;;;;;;0.50;0.50;;;;;;;;;;5066464;28;20113;-58
2021/09/20 07:06:50;;;;;;;0.40;0.40;;;;;;;;;;5057196;28;20017;-58
2021/09/20 07:09:17;;;;;;;0.50;0.50;;;;;;;;;;5047050;28;20511;-58
2021/09/20 07:11:44;;;;;;;0.85;0.40;;;;;;;;;;5062548;28;20028;-58
2021/09/20 07:14:10;;;;;;;0.30;0.30;;;;;;;;;;5066157;28;20449;-58
2021/09/20 07:16:36;;;;;;;0.32;0.32;;;;;;;;;;5066846;28;20040;-58
2021/09/20 07:19:03;;;;;;;0.50;0.50;;;;;;;;;;5066955;28;20059;-58
2021/09/20 07:21:29;;;;;;;0.50;0.50;;;;;;;;;;5073208;28;20028;-58
2021/09/20 07:23:55;;;;;;;0.40;0.40;;;;;;;;;;5087988;28;20467;-58
2021/09/20 07:26:23;;;;;;;0.50;0.50;;;;;;;;;;5088304;28;20028;-57
2021/09/20 07:28:49;;;;;;;0.50;0.50;;;;;;;;;;5088073;28;20024;-57
2021/09/20 07:31:16;;;;;;;0.57;0.57;;;;;;;;;;5082710;28;20468;-57
2021/09/20 07:33:42;;;;;;;0.50;0.50;;;;;;;;;;5066466;28;20040;-57
2021/09/20 07:36:09;;;;;;;0.55;0.55;;;;;;;;;;5068387;28;20111;-57
2021/09/20 07:38:36;;;;;;;0.38;0.38;;;;;;;;;;5067041;28;20025;-57
2021/09/20 07:41:02;;;;;;;0.60;0.60;;;;;;;;;;5066536;28;20020;-57
2021/09/20 07:43:28;;;;;;;0.40;0.40;;;;;;;;;;5061604;28;20495;-57
2021/09/20 07:45:55;;;;;;;0.50;0.50;;;;;;;;;;5068401;28;20070;-56
2021/09/20 07:48:21;;;;;;;0.40;0.40;;;;;;;;;;5067566;28;20024;-57
2021/09/20 07:50:47;;;;;;;0.43;0.40;;;;;;;;;;5068433;28;20028;-57
2021/09/20 07:53:13;;;;;;;0.38;0.38;;;;;;;;;;5068120;28;20078;-57
2021/09/20 07:55:39;;;;;;;0.47;0.47;;;;;;;;;;5067518;28;20414;-57
2021/09/20 07:58:06;;;;;;;0.50;0.50;;;;;;;;;;5067583;28;20104;-57
2021/09/20 08:00:33;;;;;;;0.50;0.40;;;;;;;;;;5067444;28;20059;-58
2021/09/20 08:02:59;;;;;;;0.40;0.40;;;;;;;;;;5066546;28;20044;-56
2021/09/20 08:05:25;;;;;;;0.45;0.45;;;;;;;;;;5086300;28;20024;-58
2021/09/20 08:07:51;;;;;;;0.73;0.40;;;;;;;;;;5079831;28;20115;-56
2021/09/20 08:10:17;;;;;;;0.68;0.60;;;;;;;;;;5067896;28;20039;-58
2021/09/20 08:12:43;;;;;;;1.70;0.63;;;;;;;;;;5068465;28;20024;-58
2021/09/20 08:15:10;;;;;;;0.75;0.40;;;;;;;;;;5078813;28;20107;-58
2021/09/20 08:17:37;;;;;;;0.47;0.47;;;;;;;;;;5075896;28;20202;-58
2021/09/20 08:20:04;;;;;;;0.40;0.40;;;;;;;;;;5086005;28;20127;-58
2021/09/20 08:22:31;;;;;;;0.55;0.55;;;;;;;;;;5088191;28;20028;-58
2021/09/20 08:24:57;;;;;;;0.85;0.50;;;;;;;;;;5075119;28;20178;-58
2021/09/20 08:27:24;;;;;;;0.35;0.35;;;;;;;;;;5054510;28;20037;-57
2021/09/20 08:29:51;;;;;;;0.40;0.40;;;;;;;;;;5066280;28;20045;-57
2021/09/20 08:32:18;;;;;;;0.50;0.40;;;;;;;;;;5066451;28;20109;-57
2021/09/20 08:34:44;;;;;;;0.30;0.30;;;;;;;;;;5067033;28;20028;-58
2021/09/20 08:37:12;;;;;;;0.40;0.40;;;;;;;;;;5066239;28;20275;-57
2021/09/20 08:39:39;;;;;;;0.45;0.45;;;;;;;;;;5066147;28;20029;-58
2021/09/20 08:42:05;;;;;;;0.93;0.40;;;;;;;;;;5064485;28;20402;-57
2021/09/20 08:44:32;;;;;;;0.52;0.40;;;;;;;;;;5064615;28;20029;-57
2021/09/20 08:46:58;;;;;;;0.30;0.30;;;;;;;;;;5065240;28;20043;-57
2021/09/20 08:49:25;;;;;;;0.60;0.60;;;;;;;;;;5064172;28;20020;-57
2021/09/20 08:51:55;;;;;;;0.70;0.70;;;;;;;;;;5065178;28;20060;-57
2021/09/20 08:54:23;;;;;;;0.75;0.70;;;;;;;;;;5073949;28;20510;-57
2021/09/20 08:56:50;;;;;;;0.60;0.60;;;;;;;;;;5066145;28;20028;-58
2021/09/20 08:59:17;;;;;;;0.60;0.60;;;;;;;;;;5066741;28;20028;-56
2021/09/20 09:01:47;;;;;;;1.38;0.65;;;;;;;;;;5066314;28;20051;-56
2021/09/20 09:04:21;;;;;;;0.65;0.60;;;;;;;;;;5066465;28;20090;-58
2021/09/20 09:07:04;;;;;;;1.48;1.00;;;;;;;;;;5066372;28;20021;-57
2021/09/20 09:09:35;;;;;;;2.03;1.40;;;;;;;;;;5065491;28;20082;-58
2021/09/20 09:12:08;;;;;;;2.85;1.10;;;;;;;;;;5062734;28;20017;-58
2021/09/20 09:14:42;;;;;;;2.03;1.07;;;;;;;;;;5065053;28;20056;-58
2021/09/20 09:17:13;;;;;;;1.95;1.20;;;;;;;;;;5064692;28;20092;-58
2021/09/20 09:19:48;;;;;;;1.38;0.88;;;;;;;;;;5065102;28;20037;-58
2021/09/20 09:22:14;;;;;;;1.40;0.73;;;;;;;;;;5044437;28;20027;-58
2021/09/20 09:24:52;;;;;;;0.90;0.70;;;;;;;;;;5047146;28;20028;-57
2021/09/20 09:27:20;;;;;;;1.08;0.60;;;;;;;;;;5065724;28;20021;-58
2021/09/20 09:29:46;;;;;;;1.27;0.75;;;;;;;;;;5066040;28;20125;-56
2021/09/20 09:32:16;;;;;;;2.35;1.10;;;;;;;;;;5064772;28;20059;-58
2021/09/20 09:34:52;;;;;;;1.67;1.00;;;;;;;;;;5065146;28;20103;-58
2021/09/20 09:37:18;;;;;;;1.60;1.05;;;;;;;;;;5065952;28;20510;-58
2021/09/20 09:39:44;;;;;;;1.60;1.00;;;;;;;;;;5048509;28;20059;-57
2021/09/20 09:42:22;;;;;;;2.50;1.10;;;;;;;;;;5064927;28;20036;-57
2021/09/20 09:44:50;;;;;;;1.27;0.95;;;;;;;;;;5065257;28;20504;-58
2021/09/20 09:47:25;;;;;;;1.38;0.93;;;;;;;;;;5068248;28;20150;-58
2021/09/20 09:50:10;;;;;;;1.52;1.05;;;;;;;;;;5064767;28;20067;-58
2021/09/20 09:52:37;;;;;;;2.40;1.27;;;;;;;;;;5065018;28;20017;-58
2021/09/20 09:55:03;;;;;;;1.38;0.90;;;;;;;;;;5073345;28;20441;-59
2021/09/20 09:57:29;;;;;;;1.52;1.20;;;;;;;;;;5066885;28;20142;-59
2021/09/20 09:59:55;;;;;;;1.10;0.82;;;;;;;;;;5076941;28;20024;-60
2021/09/20 10:02:26;;;;;;;0.77;0.60;;;;;;;;;;5075481;28;20055;-60
2021/09/20 10:04:53;;;;;;;0.90;0.60;;;;;;;;;;5077818;28;20055;-60
2021/09/20 10:07:24;;;;;;;1.45;0.80;;;;;;;;;;5085059;28;20028;-59
2021/09/20 10:09:50;;;;;;;0.60;0.60;;;;;;;;;;5073510;28;20036;-60
2021/09/20 10:12:16;;;;;;;1.17;0.93;;;;;;;;;;5087297;28;20018;-60
2021/09/20 10:14:43;;;;;;;1.15;0.80;;;;;;;;;;5068232;28;20024;-59
2021/09/20 10:17:16;;;;;;;0.82;0.70;;;;;;;;;;5068389;28;20036;-60
2021/09/20 10:19:43;;;;;;;1.00;0.68;;;;;;;;;;5074956;28;20028;-60
2021/09/20 10:22:09;;;;;;;0.70;0.60;;;;;;;;;;5080720;28;20032;-60
2021/09/20 10:24:35;;;;;;;0.43;0.40;;;;;;;;;;5082826;28;20056;-61
2021/09/20 10:27:01;;;;;;;0.40;0.40;;;;;;;;;;5067365;28;20029;-61
2021/09/20 10:29:27;;;;;;;3.22;0.40;;;;;;;;;;5067847;28;20033;-61
2021/09/20 10:31:54;;;;;;;0.40;0.40;;;;;;;;;;5068826;28;20024;-61
2021/09/20 10:34:29;;;;;;;0.30;0.30;;;;;;;;;;5088178;28;20020;-60
2021/09/20 10:36:58;;;;;;;0.40;0.40;;;;;;;;;;5087001;28;20083;-61
2021/09/20 10:39:43;;;;;;;0.40;0.40;;;;;;;;;;5067424;28;20020;-61
2021/09/20 10:42:11;;;;;;;0.52;0.50;;;;;;;;;;5053478;28;20033;-60
2021/09/20 10:44:41;;;;;;;0.30;0.30;;;;;;;;;;5047591;28;20032;-61
2021/09/20 10:47:14;;;;;;;0.35;0.35;;;;;;;;;;5067278;28;20036;-61
2021/09/20 10:49:50;;;;;;;0.40;0.40;;;;;;;;;;5067546;28;20024;-60
2021/09/20 10:52:17;;;;;;;0.73;0.38;;;;;;;;;;5054341;28;20126;-60
2021/09/20 10:55:04;;;;;;;0.40;0.30;;;;;;;;;;5050002;28;20036;-60
2021/09/20 10:57:30;;;;;;;0.40;0.40;;;;;;;;;;5068433;28;20361;-57
2021/09/20 11:00:19;;;;;;;0.30;0.30;;;;;;;;;;5064867;28;20028;-58
2021/09/20 11:02:46;;;;;;;0.22;0.20;;;;;;;;;;5061588;28;20024;-58
2021/09/20 11:05:12;;;;;;;0.43;0.30;;;;;;;;;;5066875;28;20033;-58
2021/09/20 11:07:46;;;;;;;0.30;0.30;;;;;;;;;;5049247;28;20032;-58
2021/09/20 11:10:12;;;;;;;0.30;0.30;;;;;;;;;;5066621;28;20032;-58
2021/09/20 11:13:00;;;;;;;0.47;0.40;;;;;;;;;;5076454;28;20044;-58
2021/09/20 11:15:27;;;;;;;0.28;0.28;;;;;;;;;;5071308;28;20032;-58
2021/09/20 11:17:54;;;;;;;0.30;0.30;;;;;;;;;;5066200;28;20020;-58
2021/09/20 11:20:23;;;;;;;0.20;0.20;;;;;;;;;;5066569;28;20031;-58
2021/09/20 11:22:49;;;;;;;0.50;0.30;;;;;;;;;;5065602;28;20096;-58
2021/09/20 11:25:16;;;;;;;0.28;0.28;;;;;;;;;;5049206;28;20381;-58
2021/09/20 11:27:45;;;;;;;0.20;0.20;;;;;;;;;;5051614;28;20039;-58
2021/09/20 11:30:15;;;;;;;0.20;0.20;;;;;;;;;;5066253;28;20054;-58
2021/09/20 11:32:42;;;;;;;0.35;0.35;;;;;;;;;;5066997;28;20470;-58
2021/09/20 11:35:09;;;;;;;0.22;0.22;;;;;;;;;;5066283;28;20039;-57
2021/09/20 11:37:36;;;;;;;0.20;0.20;;;;;;;;;;5066279;28;20086;-58
2021/09/20 11:40:02;;;;;;;0.28;0.28;;;;;;;;;;5066012;28;20031;-58
2021/09/20 11:42:41;;;;;;;0.45;0.30;;;;;;;;;;5066352;28;20079;-58
2021/09/20 11:45:08;;;;;;;0.20;0.20;;;;;;;;;;5065826;28;20047;-58
2021/09/20 11:47:39;;;;;;;0.30;0.30;;;;;;;;;;5065974;28;20039;-58
2021/09/20 11:50:05;;;;;;;0.20;0.20;;;;;;;;;;5061077;28;20021;-58
2021/09/20 11:52:35;;;;;;;0.20;0.20;;;;;;;;;;5048293;28;20028;-58
2021/09/20 11:55:04;;;;;;;0.30;0.30;;;;;;;;;;5084546;28;20032;-58
2021/09/20 11:57:35;;;;;;;0.30;0.30;;;;;;;;;;5084990;28;20335;-58
2021/09/20 12:00:03;;;;;;;0.10;0.10;;;;;;;;;;5071632;28;20015;-58
2021/09/20 12:02:31;;;;;;;0.30;0.30;;;;;;;;;;5066889;28;20021;-57
2021/09/20 12:04:57;;;;;;;0.25;0.25;;;;;;;;;;5066069;28;20032;-58
2021/09/20 12:07:31;;;;;;;0.20;0.20;;;;;;;;;;5084824;28;20059;-58
2021/09/20 12:09:57;;;;;;;0.28;0.28;;;;;;;;;;5085329;28;20028;-58
2021/09/20 12:12:28;;;;;;;0.20;0.20;;;;;;;;;;5069075;28;20495;-57
2021/09/20 12:14:58;;;;;;;0.30;0.30;;;;;;;;;;5087045;28;20103;-57
2021/09/20 12:17:25;;;;;;;0.30;0.30;;;;;;;;;;5085898;28;20490;-58
2021/09/20 12:19:55;;;;;;;0.28;0.28;;;;;;;;;;5085452;28;20500;-58
2021/09/20 12:22:37;;;;;;;0.30;0.30;;;;;;;;;;5085319;28;20027;-57
2021/09/20 12:25:19;;;;;;;0.30;0.30;;;;;;;;;;5085141;28;20020;-58
2021/09/20 12:27:45;;;;;;;0.22;0.22;;;;;;;;;;5086602;28;20020;-58
2021/09/20 12:30:18;;;;;;;0.38;0.30;;;;;;;;;;5085365;28;20036;-58
2021/09/20 12:32:45;;;;;;;0.20;0.20;;;;;;;;;;5086300;28;20563;-58
2021/09/20 12:35:13;;;;;;;0.38;0.30;;;;;;;;;;5085127;28;20028;-58
2021/09/20 12:37:39;;;;;;;0.30;0.30;;;;;;;;;;5085387;28;20530;-58
2021/09/20 12:40:18;;;;;;;0.30;0.30;;;;;;;;;;5066373;28;20032;-58
2021/09/20 12:43:05;;;;;;;0.20;0.20;;;;;;;;;;5065275;28;20047;-58
2021/09/20 12:45:36;;;;;;;0.20;0.20;;;;;;;;;;5063739;28;20554;-58
2021/09/20 12:48:02;;;;;;;0.20;0.20;;;;;;;;;;5064608;28;20056;-58
2021/09/20 12:50:37;;;;;;;0.25;0.25;;;;;;;;;;5063785;28;20457;-58
2021/09/20 12:53:04;;;;;;;0.20;0.20;;;;;;;;;;5046559;28;20035;-58
2021/09/20 12:55:36;;;;;;;0.32;0.30;;;;;;;;;;5064721;28;20028;-58
2021/09/20 12:58:03;;;;;;;0.20;0.20;;;;;;;;;;5064331;28;20020;-58
2021/09/20 13:00:33;;;;;;;0.28;0.28;;;;;;;;;;5064716;28;20090;-59
2021/09/20 13:03:08;;;;;;;0.32;0.32;;;;;;;;;;5064089;28;20051;-58
2021/09/20 13:05:48;;;;;;;0.20;0.20;;;;;;;;;;5064775;28;20035;-58
2021/09/20 13:08:14;;;;;;;0.20;0.20;;;;;;;;;;5064335;28;20051;-58
2021/09/20 13:10:42;;;;;;;0.20;0.20;;;;;;;;;;5064657;28;20556;-58
2021/09/20 13:13:11;;;;;;;0.20;0.20;;;;;;;;;;5064670;28;20028;-58
2021/09/20 13:15:43;;;;;;;0.30;0.30;;;;;;;;;;5064862;28;20365;-58
2021/09/20 13:18:17;;;;;;;0.30;0.30;;;;;;;;;;5064550;28;20024;-58
2021/09/20 13:20:43;;;;;;;0.20;0.20;;;;;;;;;;5064492;28;20067;-58
2021/09/20 13:23:11;;;;;;;0.30;0.30;;;;;;;;;;5064491;28;20017;-58
2021/09/20 13:25:37;;;;;;;0.30;0.30;;;;;;;;;;5064346;28;20516;-58
2021/09/20 13:28:10;;;;;;;0.30;0.30;;;;;;;;;;5064125;28;20020;-58
2021/09/20 13:30:39;;;;;;;0.20;0.20;;;;;;;;;;5063759;28;20033;-58
2021/09/20 13:33:05;;;;;;;0.20;0.20;;;;;;;;;;5064184;28;20025;-58
2021/09/20 13:35:33;;;;;;;0.25;0.25;;;;;;;;;;5047294;28;20385;-58
2021/09/20 13:37:59;;;;;;;0.30;0.30;;;;;;;;;;5067876;28;20025;-58
2021/09/20 13:40:27;;;;;;;0.20;0.20;;;;;;;;;;5068649;28;20048;-58
2021/09/20 13:42:53;;;;;;;0.30;0.28;;;;;;;;;;5068533;28;20035;-58
2021/09/20 13:45:19;;;;;;;0.30;0.30;;;;;;;;;;5051038;28;20038;-59
2021/09/20 13:47:46;;;;;;;0.25;0.25;;;;;;;;;;5068173;28;20082;-58
2021/09/20 13:50:13;;;;;;;0.28;0.28;;;;;;;;;;5067837;28;20041;-59
2021/09/20 13:52:40;;;;;;;0.20;0.20;;;;;;;;;;5068234;28;20247;-58
2021/09/20 13:55:08;;;;;;;0.43;0.30;;;;;;;;;;5067553;28;20033;-59
2021/09/20 13:57:34;;;;;;;0.35;0.35;;;;;;;;;;5068035;28;20214;-59
2021/09/20 14:00:00;;;;;;;0.20;0.20;;;;;;;;;;5067551;28;20415;-59
2021/09/20 14:02:26;;;;;;;0.35;0.35;;;;;;;;;;5066992;28;20226;-59
2021/09/20 14:04:53;;;;;;;0.57;0.40;;;;;;;;;;5068101;28;20028;-59
2021/09/20 14:07:20;;;;;;;0.30;0.30;;;;;;;;;;5068201;28;20078;-58
2021/09/20 14:09:47;;;;;;;0.30;0.30;;;;;;;;;;5072178;28;20024;-58
2021/09/20 14:12:13;;;;;;;0.40;0.40;;;;;;;;;;5054323;28;20021;-58
2021/09/20 14:14:39;;;;;;;0.35;0.35;;;;;;;;;;5058544;28;20037;-58
2021/09/20 14:17:05;;;;;;;0.40;0.40;;;;;;;;;;5068916;28;20052;-58
2021/09/20 14:19:31;;;;;;;0.32;0.32;;;;;;;;;;5068873;28;20024;-58
2021/09/20 14:21:58;;;;;;;0.30;0.30;;;;;;;;;;5068022;28;20119;-58
2021/09/20 14:24:24;;;;;;;0.47;0.47;;;;;;;;;;5076513;28;20025;-58
2021/09/20 14:26:51;;;;;;;0.30;0.30;;;;;;;;;;5068395;28;20032;-58
2021/09/20 14:29:17;;;;;;;0.55;0.55;;;;;;;;;;5051769;28;20530;-58
2021/09/20 14:31:43;;;;;;;0.88;0.70;;;;;;;;;;5049332;28;20207;-58
2021/09/20 14:34:10;;;;;;;0.70;0.70;;;;;;;;;;5067223;28;20073;-58
2021/09/20 14:36:36;;;;;;;0.50;0.50;;;;;;;;;;5064615;28;20029;-59
2021/09/20 14:39:02;;;;;;;0.60;0.60;;;;;;;;;;5066941;28;20029;-58
2021/09/20 14:41:28;;;;;;;0.80;0.70;;;;;;;;;;5065881;28;20111;-59
2021/09/20 14:43:56;;;;;;;0.82;0.80;;;;;;;;;;5066509;28;20115;-58